^^
Your Local Weather - Clay, NY Station Historical Data
Daily Summary for January 11, 2017 Units:  English    Metric   Both
« Previous Day
Next Day »
Daily Weekly Monthly Yearly Custom
  High: Low: Average:
Temperature: 49.3 °F 34.3 °F 43.9 °F
Dew Point: 39.3 °F 22.9 °F 30 °F
Humidity: 81% 36% 60%
Wind Speed: 13.0mph 0.0mph 4.6mph
Wind Gust: 33.0mph - -
Wind- - SSW
Pressure: 30.16 in 29.72 in -
Precipitation: 0.49 in    
Historical Graphs
 
 
Tabular Data for January 11, 2017
Time Temperature Dew Point Pressure Wind Wind Speed Wind Gust Humidity Rainfall Rate (Hourly) solar
00:02 34.3 °F 27.2 °F 29.78 in Calm     75% 0.00 in 0 W/m2
00:08 34.4 °F 27.3 °F 29.77 in Calm     75% 0.00 in 0 W/m2
00:14 34.5 °F 27.4 °F 29.77 in Calm     75% 0.00 in 0 W/m2
00:20 34.7 °F 27.6 °F 29.77 in Calm     75% 0.00 in 0 W/m2
00:26 34.7 °F 27.6 °F 29.77 in Calm     75% 0.00 in 0 W/m2
00:32 34.6 °F 27.8 °F 29.77 in Calm     76% 0.00 in 0 W/m2
00:38 34.8 °F 28.0 °F 29.77 in Calm     76% 0.00 in 0 W/m2
00:44 34.9 °F 28.4 °F 29.77 in Calm     77% 0.00 in 0 W/m2
00:50 35.1 °F 28.6 °F 29.77 in Calm     77% 0.00 in 0 W/m2
00:56 35.3 °F 28.5 °F 29.78 in Calm     76% 0.00 in 0 W/m2
01:02 35.4 °F 28.9 °F 29.77 in SSE 1.0 mph 5.0 mph 77% 0.00 in 0 W/m2
01:08 35.6 °F 29.1 °F 29.77 in SSE 4.0 mph 9.0 mph 77% 0.00 in 0 W/m2
01:14 35.7 °F 29.2 °F 29.76 in South 5.0 mph 7.0 mph 77% 0.00 in 0 W/m2
01:20 36.0 °F 29.8 °F 29.76 in SSW 5.0 mph 5.0 mph 78% 0.00 in 0 W/m2
01:26 35.8 °F 29.9 °F 29.75 in SSE 4.0 mph 6.0 mph 79% 0.00 in 0 W/m2
01:32 35.8 °F 30.5 °F 29.72 in SSE 4.0 mph 6.0 mph 81% 0.00 in 0 W/m2
01:38 36.2 °F 30.9 °F 29.73 in SSE 3.0 mph 6.0 mph 81% 0.00 in 0 W/m2
01:44 36.9 °F 31.6 °F 29.73 in SE 5.0 mph 6.0 mph 81% 0.00 in 0 W/m2
01:50 37.1 °F 31.8 °F 29.73 in South 6.0 mph 9.0 mph 81% 0.04 in 0 W/m2
01:56 37.4 °F 31.5 °F 29.73 in South 6.0 mph 9.0 mph 79% 0.04 in 0 W/m2
02:02 37.3 °F 31.4 °F 29.73 in SSW 7.0 mph 7.0 mph 79% 0.06 in 0 W/m2
02:08 38.4 °F 32.1 °F 29.73 in ESE 7.0 mph 10.0 mph 78% 0.05 in 0 W/m2
02:16 39.2 °F 32.3 °F 29.74 in SSE 8.0 mph 12.0 mph 76% 0.09 in 0 W/m2
02:22 39.2 °F 31.9 °F 29.74 in SSW 9.0 mph 10.0 mph 75% 0.09 in 0 W/m2
02:28 39.5 °F 32.2 °F 29.74 in South 9.0 mph 16.0 mph 75% 0.07 in 0 W/m2
02:34 39.5 °F 32.2 °F 29.75 in SSW 9.0 mph 12.0 mph 75% 0.08 in 0 W/m2
02:40 40.3 °F 32.7 °F 29.73 in SSW 9.0 mph 11.0 mph 74% 0.08 in 0 W/m2
02:46 40.8 °F 32.5 °F 29.73 in South 10.0 mph 16.0 mph 72% 0.07 in 0 W/m2
02:52 40.9 °F 32.6 °F 29.75 in WSW 11.0 mph 33.0 mph 72% 0.09 in 0 W/m2
02:58 40.9 °F 32.2 °F 29.76 in South 12.0 mph 33.0 mph 71% 0.07 in 0 W/m2
03:04 40.8 °F 32.1 °F 29.75 in South 12.0 mph 18.0 mph 71% 0.13 in 0 W/m2
03:10 40.7 °F 32.0 °F 29.75 in SSE 10.0 mph 10.0 mph 71% 0.08 in 0 W/m2
03:16 40.9 °F 32.2 °F 29.76 in WSW 12.0 mph 24.0 mph 71% 0.09 in 0 W/m2
03:22 40.5 °F 32.2 °F 29.76 in SSW 12.0 mph 19.0 mph 72% 0.10 in 0 W/m2
03:28 41.7 °F 32.6 °F 29.77 in SW 11.0 mph 19.0 mph 70% 0.13 in 0 W/m2
03:34 41.5 °F 32.4 °F 29.78 in SW 12.0 mph 21.0 mph 70% 0.10 in 0 W/m2
03:40 41.3 °F 32.2 °F 29.78 in SSE 12.0 mph 12.0 mph 70% 0.13 in 0 W/m2
03:46 41.0 °F 32.0 °F 29.79 in SSW 11.0 mph 12.0 mph 70% 0.10 in 0 W/m2
03:52 40.7 °F 32.0 °F 29.80 in South 8.0 mph 9.0 mph 71% 0.12 in 0 W/m2
03:58 40.7 °F 32.4 °F 29.81 in SW 7.0 mph 9.0 mph 72% 0.10 in 0 W/m2
04:04 41.1 °F 32.8 °F 29.82 in WSW 6.0 mph 7.0 mph 72% 0.10 in 0 W/m2
04:10 41.8 °F 33.1 °F 29.82 in SW 6.0 mph 6.0 mph 71% 0.08 in 0 W/m2
04:16 41.7 °F 33.0 °F 29.83 in SW 5.0 mph 7.0 mph 71% 0.13 in 0 W/m2
04:22 41.6 °F 32.9 °F 29.84 in West 6.0 mph 6.0 mph 71% 0.10 in 0 W/m2
04:28 41.5 °F 32.8 °F 29.85 in SW 6.0 mph 7.0 mph 71% 0.08 in 0 W/m2
04:34 41.5 °F 32.8 °F 29.87 in WSW 5.0 mph 6.0 mph 71% 0.07 in 0 W/m2
04:40 41.6 °F 33.2 °F 29.88 in West 5.0 mph 5.0 mph 72% 0.10 in 0 W/m2
04:46 41.5 °F 33.1 °F 29.89 in WSW 6.0 mph 8.0 mph 72% 0.09 in 0 W/m2
04:52 41.4 °F 33.0 °F 29.89 in WSW 6.0 mph 6.0 mph 72% 0.14 in 0 W/m2
04:58 41.1 °F 32.8 °F 29.89 in West 5.0 mph 6.0 mph 72% 0.09 in 0 W/m2
05:04 40.9 °F 32.9 °F 29.90 in SW 4.0 mph 6.0 mph 73% 0.05 in 0 W/m2
05:10 40.8 °F 33.2 °F 29.90 in SW 4.0 mph 6.0 mph 74% 0.05 in 0 W/m2
05:16 41.0 °F 33.3 °F 29.90 in WSW 4.0 mph 7.0 mph 74% 0.05 in 0 W/m2
05:22 41.0 °F 33.3 °F 29.91 in SSW 5.0 mph 5.0 mph 74% 0.05 in 0 W/m2
05:28 40.9 °F 33.2 °F 29.92 in WSW 4.0 mph 7.0 mph 74% 0.05 in 0 W/m2
05:34 40.8 °F 33.2 °F 29.91 in SSW 4.0 mph 5.0 mph 74% 0.04 in 0 W/m2
05:40 40.6 °F 33.3 °F 29.92 in SW 3.0 mph 3.0 mph 75% 0.04 in 0 W/m2
05:46 40.4 °F 33.1 °F 29.93 in SSW 3.0 mph 3.0 mph 75% 0.04 in 0 W/m2
05:52 40.3 °F 33.0 °F 29.93 in SW 3.0 mph 3.0 mph 75% 0.04 in 0 W/m2
05:58 40.2 °F 33.2 °F 29.94 in West 3.0 mph 4.0 mph 76% 0.04 in 0 W/m2
06:04 40.2 °F 33.2 °F 29.95 in WSW 2.0 mph 4.0 mph 76% 0.00 in 0 W/m2
06:10 40.0 °F 33.0 °F 29.95 in West 1.0 mph 1.0 mph 76% 0.00 in 0 W/m2
06:16 39.7 °F 33.1 °F 29.95 in WSW 1.0 mph 2.0 mph 77% 0.00 in 0 W/m2
06:22 39.4 °F 32.8 °F 29.96 in WSW 1.0 mph 1.0 mph 77% 0.00 in 0 W/m2
06:28 39.2 °F 32.6 °F 29.96 in SW 1.0 mph 1.0 mph 77% 0.00 in 0 W/m2
06:34 39.0 °F 32.7 °F 29.96 in SW 1.0 mph 4.0 mph 78% 0.00 in 0 W/m2
06:40 39.1 °F 32.8 °F 29.96 in WSW 2.0 mph 2.0 mph 78% 0.00 in 0 W/m2
06:46 39.2 °F 32.9 °F 29.98 in SW 2.0 mph 3.0 mph 78% 0.00 in 0 W/m2
06:52 39.2 °F 32.9 °F 29.99 in WSW 1.0 mph 4.0 mph 78% 0.00 in 0 W/m2
06:58 39.0 °F 32.7 °F 30.00 in WSW 1.0 mph 4.0 mph 78% 0.00 in 0 W/m2
07:04 39.0 °F 32.7 °F 30.01 in West 2.0 mph 3.0 mph 78% 0.00 in 0 W/m2
07:10 39.2 °F 32.6 °F 30.01 in West 2.0 mph 3.0 mph 77% 0.00 in 0 W/m2
07:16 39.5 °F 32.9 °F 30.01 in WSW 3.0 mph 3.0 mph 77% 0.00 in 0 W/m2
07:22 39.5 °F 32.6 °F 30.01 in WSW 3.0 mph 4.0 mph 76% 0.00 in 0 W/m2
07:28 39.6 °F 32.7 °F 30.02 in WNW 3.0 mph 5.0 mph 76% 0.00 in 0 W/m2
07:34 39.5 °F 32.6 °F 30.02 in SW 3.0 mph 5.0 mph 76% 0.00 in 5 W/m2
07:40 39.3 °F 32.4 °F 30.03 in SW 2.0 mph 2.0 mph 76% 0.00 in 7 W/m2
07:46 39.4 °F 32.5 °F 30.04 in SW 3.0 mph 3.0 mph 76% 0.00 in 9 W/m2
07:52 39.5 °F 32.6 °F 30.04 in West 4.0 mph 4.0 mph 76% 0.00 in 11 W/m2
07:58 39.7 °F 32.4 °F 30.04 in SW 3.0 mph 6.0 mph 75% 0.00 in 14 W/m2
08:04 39.7 °F 32.4 °F 30.05 in West 2.0 mph 3.0 mph 75% 0.00 in 16 W/m2
08:10 39.8 °F 32.5 °F 30.07 in SW 2.0 mph 3.0 mph 75% 0.00 in 19 W/m2
08:16 40.0 °F 32.7 °F 30.07 in WSW 2.0 mph 3.0 mph 75% 0.00 in 21 W/m2
08:22 40.1 °F 32.5 °F 30.08 in West 2.0 mph 2.0 mph 74% 0.00 in 23 W/m2
08:28 40.3 °F 32.3 °F 30.08 in WSW 2.0 mph 4.0 mph 73% 0.00 in 51 W/m2
08:34 40.5 °F 32.5 °F 30.09 in SW 2.0 mph 3.0 mph 73% 0.00 in 135 W/m2
08:40 40.8 °F 32.5 °F 30.09 in West 1.0 mph 1.0 mph 72% 0.00 in 156 W/m2
08:46 41.5 °F 32.4 °F 30.10 in West 2.0 mph 3.0 mph 70% 0.00 in 171 W/m2
08:52 42.0 °F 32.6 °F 30.10 in WSW 2.0 mph 3.0 mph 69% 0.00 in 192 W/m2
08:58 42.2 °F 32.0 °F 30.10 in SW 1.0 mph 5.0 mph 67% 0.06 in 202 W/m2
09:04 42.4 °F 31.1 °F 30.10 in West 2.0 mph 4.0 mph 64% 0.05 in 218 W/m2
09:10 43.0 °F 29.2 °F 30.11 in West 4.0 mph 4.0 mph 58% 0.04 in 230 W/m2
09:16 43.6 °F 28.5 °F 30.12 in SW 4.0 mph 9.0 mph 55% 0.04 in 244 W/m2
09:22 44.2 °F 27.7 °F 30.13 in SSW 4.0 mph 4.0 mph 52% 0.06 in 262 W/m2
09:28 44.4 °F 27.4 °F 30.13 in SW 4.0 mph 4.0 mph 51% 0.05 in 272 W/m2
09:34 44.7 °F 26.2 °F 30.13 in WSW 4.0 mph 8.0 mph 48% 0.04 in 294 W/m2
09:40 45.2 °F 27.2 °F 30.14 in SW 3.0 mph 3.0 mph 49% 0.04 in 297 W/m2
09:46 45.5 °F 26.9 °F 30.14 in SW 3.0 mph 9.0 mph 48% 0.07 in 309 W/m2
09:52 45.6 °F 27.5 °F 30.15 in WSW 4.0 mph 9.0 mph 49% 0.05 in 322 W/m2
09:58 45.5 °F 26.4 °F 30.15 in WSW 5.0 mph 9.0 mph 47% 0.04 in 334 W/m2
10:04 45.6 °F 26.0 °F 30.15 in WSW 6.0 mph 13.0 mph 46% 0.04 in 345 W/m2
10:10 45.6 °F 25.5 °F 30.15 in WSW 7.0 mph 7.0 mph 45% 0.05 in 353 W/m2
10:16 46.0 °F 26.4 °F 30.15 in WSW 5.0 mph 7.0 mph 46% 0.05 in 364 W/m2
10:22 46.5 °F 27.3 °F 30.15 in WSW 3.0 mph 3.0 mph 47% 0.04 in 374 W/m2
10:28 46.3 °F 26.6 °F 30.16 in West 3.0 mph 14.0 mph 46% 0.04 in 383 W/m2
10:34 46.1 °F 25.4 °F 30.15 in SSW 5.0 mph 5.0 mph 44% 0.04 in 392 W/m2
10:40 46.3 °F 24.4 °F 30.15 in WSW 5.0 mph 6.0 mph 42% 0.04 in 401 W/m2
10:46 46.3 °F 25.0 °F 30.16 in WNW 4.0 mph 7.0 mph 43% 0.04 in 415 W/m2
10:52 46.5 °F 24.6 °F 30.16 in West 5.0 mph 5.0 mph 42% 0.04 in 417 W/m2
10:58 46.7 °F 24.2 °F 30.15 in West 5.0 mph 11.0 mph 41% 0.00 in 425 W/m2
11:04 46.5 °F 23.4 °F 30.16 in SSW 6.0 mph 10.0 mph 40% 0.00 in 427 W/m2
11:10 46.8 °F 24.3 °F 30.15 in SW 5.0 mph 7.0 mph 41% 0.00 in 429 W/m2
11:16 46.9 °F 24.4 °F 30.16 in West 5.0 mph 7.0 mph 41% 0.00 in 441 W/m2
11:22 47.0 °F 23.9 °F 30.15 in West 5.0 mph 8.0 mph 40% 0.00 in 390 W/m2
11:28 47.0 °F 24.5 °F 30.14 in WNW 5.0 mph 8.0 mph 41% 0.00 in 98 W/m2
11:34 46.9 °F 24.4 °F 30.14 in West 4.0 mph 9.0 mph 41% 0.00 in 462 W/m2
11:40 47.4 °F 24.3 °F 30.13 in SW 3.0 mph 3.0 mph 40% 0.00 in 466 W/m2
11:46 47.8 °F 24.0 °F 30.13 in West 2.0 mph 6.0 mph 39% 0.00 in 452 W/m2
11:52 48.1 °F 24.3 °F 30.13 in WSW 3.0 mph 5.0 mph 39% 0.00 in 445 W/m2
11:58 47.7 °F 23.9 °F 30.13 in WSW 4.0 mph 5.0 mph 39% 0.00 in 364 W/m2
12:04 48.0 °F 24.2 °F 30.12 in WSW 3.0 mph 7.0 mph 39% 0.00 in 422 W/m2
12:10 47.7 °F 23.9 °F 30.13 in SW 3.0 mph 3.0 mph 39% 0.00 in 378 W/m2
12:16 47.8 °F 24.6 °F 30.11 in WSW 3.0 mph 8.0 mph 40% 0.00 in 341 W/m2
12:22 47.8 °F 24.6 °F 30.10 in WSW 3.0 mph 3.0 mph 40% 0.00 in 364 W/m2
12:28 47.9 °F 24.7 °F 30.11 in West 3.0 mph 7.0 mph 40% 0.00 in 396 W/m2
12:34 47.8 °F 24.6 °F 30.11 in West 4.0 mph 4.0 mph 40% 0.00 in 381 W/m2
12:40 48.1 °F 24.9 °F 30.12 in West 3.0 mph 3.0 mph 40% 0.00 in 253 W/m2
12:46 48.1 °F 24.3 °F 30.12 in West 2.0 mph 6.0 mph 39% 0.00 in 267 W/m2
12:54 47.5 °F 24.3 °F 30.11 in SW 3.0 mph 5.0 mph 40% 0.00 in 320 W/m2
13:00 47.8 °F 24.6 °F 30.11 in SSW 2.0 mph 3.0 mph 40% 0.00 in 290 W/m2
13:06 47.5 °F 24.3 °F 30.10 in SW 3.0 mph 5.0 mph 40% 0.00 in 248 W/m2
13:12 47.4 °F 23.7 °F 30.10 in SSW 4.0 mph 4.0 mph 39% 0.00 in 236 W/m2
13:18 47.5 °F 23.7 °F 30.09 in SSE 2.0 mph 4.0 mph 39% 0.00 in 230 W/m2
13:26 47.3 °F 24.8 °F 30.08 in SW 3.0 mph 3.0 mph 41% 0.00 in 336 W/m2
13:32 48.2 °F 25.0 °F 30.09 in SSW 2.0 mph 2.0 mph 40% 0.00 in 325 W/m2
13:38 48.4 °F 24.6 °F 30.08 in SSW 1.0 mph 3.0 mph 39% 0.00 in 329 W/m2
13:46 48.4 °F 24.6 °F 30.09 in SE 2.0 mph 4.0 mph 39% 0.00 in 371 W/m2
13:52 48.3 °F 23.8 °F 30.08 in South 2.0 mph 4.0 mph 38% 0.00 in 190 W/m2
13:58 48.4 °F 23.3 °F 30.08 in SSE 3.0 mph 5.0 mph 37% 0.00 in 301 W/m2
14:06 48.7 °F 22.9 °F 30.08 in South 4.0 mph 7.0 mph 36% 0.00 in 197 W/m2
14:12 48.9 °F 23.1 °F 30.08 in South 4.0 mph 4.0 mph 36% 0.00 in 279 W/m2
14:18 49.3 °F 23.4 °F 30.08 in South 3.0 mph 5.0 mph 36% 0.00 in 274 W/m2
14:26 48.9 °F 24.4 °F 30.08 in South 5.0 mph 8.0 mph 38% 0.00 in 241 W/m2
14:32 49.0 °F 25.1 °F 30.08 in SE 5.0 mph 5.0 mph 39% 0.00 in 302 W/m2
14:38 49.0 °F 25.7 °F 30.08 in South 4.0 mph 8.0 mph 40% 0.00 in 193 W/m2
14:44 49.2 °F 24.6 °F 30.08 in SSE 5.0 mph 10.0 mph 38% 0.00 in 155 W/m2
14:50 48.9 °F 25.0 °F 30.08 in SE 6.0 mph 6.0 mph 39% 0.00 in 135 W/m2
14:56 48.5 °F 25.8 °F 30.08 in South 6.0 mph 7.0 mph 41% 0.00 in 120 W/m2
15:02 48.1 °F 26.6 °F 30.08 in SE 5.0 mph 10.0 mph 43% 0.00 in 107 W/m2
15:08 48.1 °F 27.2 °F 30.09 in SSE 5.0 mph 10.0 mph 44% 0.00 in 97 W/m2
15:14 47.9 °F 27.6 °F 30.08 in SSE 6.0 mph 7.0 mph 45% 0.00 in 90 W/m2
15:20 47.8 °F 28.5 °F 30.08 in SSE 6.0 mph 6.0 mph 47% 0.00 in 88 W/m2
15:26 47.6 °F 28.9 °F 30.08 in South 7.0 mph 7.0 mph 48% 0.00 in 84 W/m2
15:32 47.5 °F 28.8 °F 30.08 in SSE 6.0 mph 6.0 mph 48% 0.00 in 70 W/m2
15:38 47.3 °F 29.1 °F 30.08 in SSW 5.0 mph 8.0 mph 49% 0.00 in 62 W/m2
15:44 47.1 °F 28.9 °F 30.08 in East 5.0 mph 10.0 mph 49% 0.00 in 54 W/m2
15:50 47.1 °F 28.9 °F 30.07 in SSE 6.0 mph 6.0 mph 49% 0.00 in 53 W/m2
15:56 47.0 °F 29.3 °F 30.08 in SSE 5.0 mph 6.0 mph 50% 0.00 in 46 W/m2
16:02 46.5 °F 29.3 °F 30.07 in SE 4.0 mph 5.0 mph 51% 0.00 in 33 W/m2
16:08 46.5 °F 29.3 °F 30.06 in South 4.0 mph 7.0 mph 51% 0.00 in 28 W/m2
16:14 46.3 °F 29.6 °F 30.06 in SSE 4.0 mph 5.0 mph 52% 0.00 in 21 W/m2
16:20 46.0 °F 29.3 °F 30.05 in SE 3.0 mph 3.0 mph 52% 0.00 in 16 W/m2
16:26 45.8 °F 29.6 °F 30.05 in SSE 3.0 mph 3.0 mph 53% 0.00 in 11 W/m2
16:32 45.4 °F 29.7 °F 30.05 in SSE 2.0 mph 4.0 mph 54% 0.00 in 7 W/m2
16:38 45.3 °F 29.6 °F 30.04 in SSE 2.0 mph 4.0 mph 54% 0.00 in 5 W/m2
16:44 44.8 °F 29.6 °F 30.03 in Calm   1.0 mph 55% 0.00 in 0 W/m2
16:50 44.0 °F 29.3 °F 30.03 in ENE 1.0 mph 1.0 mph 56% 0.00 in 0 W/m2
16:56 44.2 °F 29.5 °F 30.02 in SE 1.0 mph 4.0 mph 56% 0.00 in 0 W/m2
17:02 44.8 °F 29.6 °F 30.02 in SSE 3.0 mph 5.0 mph 55% 0.00 in 0 W/m2
17:08 44.9 °F 29.2 °F 30.04 in South 3.0 mph 5.0 mph 54% 0.00 in 0 W/m2
17:14 44.6 °F 29.4 °F 30.04 in South 1.0 mph 2.0 mph 55% 0.00 in 0 W/m2
17:20 44.1 °F 29.4 °F 30.04 in ESE 1.0 mph 2.0 mph 56% 0.00 in 0 W/m2
17:26 43.8 °F 29.1 °F 30.04 in ESE 1.0 mph 2.0 mph 56% 0.00 in 0 W/m2
17:32 43.3 °F 29.1 °F 30.05 in SSE 1.0 mph 2.0 mph 57% 0.00 in 0 W/m2
17:38 44.0 °F 28.9 °F 30.05 in SE 2.0 mph 3.0 mph 55% 0.00 in 0 W/m2
17:44 44.7 °F 28.6 °F 30.04 in SE 2.0 mph 2.0 mph 53% 0.00 in 0 W/m2
17:50 45.1 °F 29.0 °F 30.03 in SE 3.0 mph 3.0 mph 53% 0.00 in 0 W/m2
17:56 45.3 °F 29.2 °F 30.03 in SE 3.0 mph 5.0 mph 53% 0.00 in 0 W/m2
18:02 44.3 °F 29.1 °F 30.02 in SE 2.0 mph 5.0 mph 55% 0.00 in 0 W/m2
18:08 44.8 °F 29.6 °F 30.02 in South 2.0 mph 5.0 mph 55% 0.00 in 0 W/m2
18:14 45.2 °F 30.0 °F 30.02 in SE 3.0 mph 7.0 mph 55% 0.00 in 0 W/m2
18:20 45.3 °F 30.1 °F 30.02 in SSE 3.0 mph 5.0 mph 55% 0.00 in 0 W/m2
18:26 45.2 °F 30.0 °F 30.02 in SSE 2.0 mph 5.0 mph 55% 0.00 in 0 W/m2
18:32 44.5 °F 29.8 °F 30.01 in ENE 2.0 mph 3.0 mph 56% 0.00 in 0 W/m2
18:38 44.3 °F 29.1 °F 30.01 in SSE 2.0 mph 3.0 mph 55% 0.00 in 0 W/m2
18:44 44.5 °F 29.8 °F 30.01 in SE 2.0 mph 2.0 mph 56% 0.00 in 0 W/m2
18:50 43.9 °F 29.6 °F 30.02 in SE 1.0 mph 1.0 mph 57% 0.00 in 0 W/m2
18:58 43.4 °F 30.0 °F 30.00 in ESE 1.0 mph 3.0 mph 59% 0.00 in 0 W/m2
19:04 43.8 °F 29.5 °F 30.00 in SE 2.0 mph 2.0 mph 57% 0.00 in 0 W/m2
19:10 43.8 °F 29.5 °F 30.00 in South 2.0 mph 2.0 mph 57% 0.00 in 0 W/m2
19:16 43.7 °F 29.9 °F 29.99 in SSE 1.0 mph 2.0 mph 58% 0.00 in 0 W/m2
19:22 43.3 °F 29.5 °F 30.00 in Calm   2.0 mph 58% 0.00 in 0 W/m2
19:28 43.4 °F 29.6 °F 30.00 in South 1.0 mph 3.0 mph 58% 0.00 in 0 W/m2
19:34 45.9 °F 29.7 °F 30.00 in SSW 4.0 mph 6.0 mph 53% 0.00 in 0 W/m2
19:40 46.9 °F 29.7 °F 29.99 in SSE 6.0 mph 7.0 mph 51% 0.00 in 0 W/m2
19:46 47.1 °F 29.9 °F 29.98 in SSE 6.0 mph 8.0 mph 51% 0.00 in 0 W/m2
19:52 47.0 °F 30.3 °F 29.98 in SSE 5.0 mph 6.0 mph 52% 0.00 in 0 W/m2
19:58 46.7 °F 30.5 °F 29.98 in South 4.0 mph 6.0 mph 53% 0.00 in 0 W/m2
20:04 46.7 °F 30.5 °F 29.98 in SE 4.0 mph 6.0 mph 53% 0.00 in 0 W/m2
20:10 46.4 °F 30.2 °F 29.98 in SSE 3.0 mph 3.0 mph 53% 0.00 in 0 W/m2
20:16 46.5 °F 30.3 °F 29.98 in WSW 3.0 mph 3.0 mph 53% 0.00 in 0 W/m2
20:22 47.4 °F 29.2 °F 29.97 in South 4.0 mph 6.0 mph 49% 0.00 in 0 W/m2
20:28 48.2 °F 29.4 °F 29.97 in South 7.0 mph 13.0 mph 48% 0.00 in 0 W/m2
20:34 48.2 °F 29.4 °F 29.97 in South 8.0 mph 11.0 mph 48% 0.00 in 0 W/m2
20:40 47.9 °F 30.1 °F 29.97 in South 5.0 mph 15.0 mph 50% 0.00 in 0 W/m2
20:46 47.5 °F 30.7 °F 29.97 in SSE 6.0 mph 15.0 mph 52% 0.00 in 0 W/m2
20:52 47.5 °F 31.7 °F 29.97 in South 6.0 mph 10.0 mph 54% 0.00 in 0 W/m2
20:58 47.5 °F 31.7 °F 29.97 in SSW 7.0 mph 10.0 mph 54% 0.00 in 0 W/m2
21:04 47.8 °F 31.5 °F 29.97 in South 7.0 mph 7.0 mph 53% 0.00 in 0 W/m2
21:10 47.8 °F 31.9 °F 29.97 in SW 7.0 mph 7.0 mph 54% 0.00 in 0 W/m2
21:16 47.5 °F 32.1 °F 29.97 in SW 7.0 mph 11.0 mph 55% 0.00 in 0 W/m2
21:22 47.6 °F 32.2 °F 29.97 in South 8.0 mph 8.0 mph 55% 0.00 in 0 W/m2
21:28 47.6 °F 32.7 °F 29.97 in South 8.0 mph 8.0 mph 56% 0.00 in 0 W/m2
21:34 47.5 °F 32.6 °F 29.97 in South 7.0 mph 13.0 mph 56% 0.00 in 0 W/m2
21:40 47.4 °F 32.5 °F 29.96 in SSE 7.0 mph 10.0 mph 56% 0.00 in 0 W/m2
21:46 47.4 °F 32.9 °F 29.95 in SSE 7.0 mph 10.0 mph 57% 0.00 in 0 W/m2
21:52 47.3 °F 32.8 °F 29.94 in SSE 7.0 mph 11.0 mph 57% 0.00 in 0 W/m2
21:58 47.2 °F 33.2 °F 29.93 in South 6.0 mph 11.0 mph 58% 0.00 in 0 W/m2
22:04 47.5 °F 33.4 °F 29.93 in SSE 6.0 mph 6.0 mph 58% 0.00 in 0 W/m2
22:10 48.2 °F 34.1 °F 29.92 in SSE 7.0 mph 14.0 mph 58% 0.00 in 0 W/m2
22:16 48.5 °F 34.4 °F 29.91 in SE 9.0 mph 14.0 mph 58% 0.00 in 0 W/m2
22:22 48.5 °F 34.4 °F 29.91 in SSE 8.0 mph 10.0 mph 58% 0.00 in 0 W/m2
22:28 48.7 °F 35.0 °F 29.90 in SSE 8.0 mph 13.0 mph 59% 0.00 in 0 W/m2
22:34 49.0 °F 35.3 °F 29.90 in SSE 9.0 mph 12.0 mph 59% 0.00 in 0 W/m2
22:40 49.1 °F 35.8 °F 29.91 in South 11.0 mph 11.0 mph 60% 0.00 in 0 W/m2
22:46 48.9 °F 35.6 °F 29.90 in SSE 12.0 mph 14.0 mph 60% 0.00 in 0 W/m2
22:52 48.7 °F 35.8 °F 29.89 in SE 11.0 mph 14.0 mph 61% 0.00 in 0 W/m2
22:58 48.7 °F 36.3 °F 29.89 in South 12.0 mph 17.0 mph 62% 0.00 in 0 W/m2
23:04 48.2 °F 36.2 °F 29.87 in South 12.0 mph 14.0 mph 63% 0.00 in 0 W/m2
23:10 48.1 °F 36.5 °F 29.87 in SSE 11.0 mph 11.0 mph 64% 0.00 in 0 W/m2
23:16 47.9 °F 36.7 °F 29.87 in SSE 12.0 mph 12.0 mph 65% 0.00 in 0 W/m2
23:22 47.7 °F 37.7 °F 29.87 in South 12.0 mph 19.0 mph 68% 0.00 in 0 W/m2
23:28 47.7 °F 37.7 °F 29.87 in SSW 13.0 mph 19.0 mph 68% 0.00 in 0 W/m2
23:34 47.7 °F 38.0 °F 29.86 in SE 12.0 mph 22.0 mph 69% 0.00 in 0 W/m2
23:40 47.7 °F 38.4 °F 29.87 in SSW 11.0 mph 15.0 mph 70% 0.00 in 0 W/m2
23:46 47.9 °F 38.9 °F 29.87 in SSW 11.0 mph 17.0 mph 71% 0.00 in 0 W/m2
23:52 47.6 °F 39.0 °F 29.87 in SSW 9.0 mph 10.0 mph 72% 0.00 in 0 W/m2
23:58 47.9 °F 39.3 °F 29.86 in SSE 10.0 mph 15.0 mph 72% 0.00 in 0 W/m2
Country Meadow, Clay, NY, USA
Compliments of Weather Underground - 2 mb